Middle Village, NY (11379)

9:59 AM EST on January 19, 2017 (GMT -0500)
Middle Village | | Change Station

Elev 109 ft 40.72 °N, 73.89 °W | Updated 3 seconds ago

Clear
Clear
47.3 °F
Feels Like 42 °F
N
12.0
Wind Variable Wind from NNW

Today
High -- | Low -- °F
--% Chance of Precip.
Yesterday
High -- | Low -- °F
Precip. -- in
Pressure 30.06 in
Visibility 10.0 miles
Clouds Few 2100 ft
Scattered Clouds 5000 ft
Scattered Clouds 25000 ft
Windchill 42 °F
Dew Point 35 °F
Humidity 63%
Rainfall 0.00 in
Snow Depth Not available.
7:15 AM 4:57 PM
Waning Gibbous, 53% visible
METAR KLGA 191451Z 31009KT 10SM FEW021 SCT050 SCT250 07/02 A3006 RMK AO2 SLP177 T00720022 51010 $
Pressure 30.06 in
Visibility 10.0 miles
Clouds Few 2100 ft
Scattered Clouds 5000 ft
Scattered Clouds 25000 ft
Windchill 42 °F
Dew Point 35 °F
Humidity 63%
Rainfall 0.00 in
Snow Depth Not available.
7:15 AM 4:57 PM
Waning Gibbous, 53% visible
METAR KLGA 191451Z 31009KT 10SM FEW021 SCT050 SCT250 07/02 A3006 RMK AO2 SLP177 T00720022 51010 $

Get Your Daily Forecast Email!

Thanks for signing up!

Be on the lookout for a verification email in your inbox.

You'll start receiving the daily forecast at 8 AM.

×

10-Day Weather Forecast

Almanac

Astronomy

Jan. 19, 2017 Rise Set
Actual Time
Civil Twilight
Nautical Twilight
Astronomical Twilight
Moon
Length of Visible Light
Length of Day
Tomorrow will be .
, % of the Moon is Illuminated

Today's Extremes

State Highs State Lows

Community

WunderPhotos

Upload Photos

1,962,540 photos uploaded!

WunderBlog® & News

Nearby

Air Quality

  Air Quality AQ Index Pollutant
Not available.

Snow Depth

Station Depth Elevation

Earthquake Activity

City Distance Mag. Time & Date
Minimum magnitude displayed is 2.5.

Coastal Water Temperatures

Place Temperature

Stations

Nearby Weather Stations

Station Location Temp. Windchill Dew Point Humidity Wind Precip. Elev Updated Type
                   

Watches & Warnings

Small Craft for Hazardous Seas Advisory
Issued: 5:57 AM EST Jan. 19, 2017 – National Weather Service

... Small Craft Advisory for hazardous seas remains in effect
until 6 PM EST this evening...

* seas... 4 to 6 feet.

Precautionary/preparedness actions...

A Small Craft Advisory for hazardous seas means that seas of 5 ft
or higher are expected or occurring... and hazardous to small
craft. Mariners should avoid shoaling areas. Long period swells
can sharpen into large breaking waves in shoaling areas. It is
not unusual for waves to break much farther from shoaling areas
than is normally experienced. Remember that breaking waves can
easily capsize even larger vessels.